createdAt,value
2018-06-13T00:01:29.424Z,93075.34
2018-06-13T00:03:58.196Z,93068.78
2018-06-13T00:06:27.000Z,93075.39
2018-06-13T00:08:55.804Z,93075.18
2018-06-13T00:11:24.581Z,93076.23
2018-06-13T00:13:53.374Z,93066.42
2018-06-13T00:16:22.308Z,93065.83
2018-06-13T00:18:51.137Z,93061.09
2018-06-13T00:21:19.908Z,93065.83
2018-06-13T00:23:48.672Z,93062.96
2018-06-13T00:26:17.438Z,93063.20
2018-06-13T00:28:46.230Z,93062.52
2018-06-13T00:31:15.012Z,92995.00
2018-06-13T00:33:43.802Z,93054.08
2018-06-13T00:36:12.598Z,93057.44
2018-06-13T00:38:41.425Z,93064.75
2018-06-13T00:41:10.255Z,93064.86
2018-06-13T00:43:39.071Z,93061.31
2018-06-13T00:46:07.831Z,93063.77
2018-06-13T00:48:36.597Z,93059.25
2018-06-13T00:51:05.425Z,93062.88
2018-06-13T00:53:34.217Z,93059.22
2018-06-13T00:56:13.762Z,93061.89
2018-06-13T00:58:42.607Z,93062.27
2018-06-13T01:01:11.536Z,93057.87
2018-06-13T01:03:40.388Z,93052.11
2018-06-13T01:06:09.209Z,93052.48
2018-06-13T01:08:37.967Z,93048.94
2018-06-13T01:11:06.713Z,93044.89
2018-06-13T01:13:35.529Z,93047.05
2018-06-13T01:16:04.298Z,93050.87
2018-06-13T01:18:33.083Z,93046.05
2018-06-13T01:21:01.955Z,93045.38
2018-06-13T01:23:30.731Z,93039.11
2018-06-13T01:25:59.524Z,93041.33
2018-06-13T01:28:28.798Z,93041.44
2018-06-13T01:30:57.563Z,93040.76
2018-06-13T01:33:26.394Z,93039.30
2018-06-13T01:35:55.189Z,93033.63
2018-06-13T01:38:23.930Z,93028.67
2018-06-13T01:40:52.700Z,93037.13
2018-06-13T01:43:21.491Z,93040.58
2018-06-13T01:45:50.379Z,93028.23
2018-06-13T01:48:19.133Z,93030.91
2018-06-13T01:50:55.458Z,93026.14
2018-06-13T01:53:24.585Z,93030.55
2018-06-13T01:55:53.405Z,93026.64
2018-06-13T01:58:22.172Z,93018.69
2018-06-13T02:00:50.971Z,93019.47
2018-06-13T02:03:19.755Z,93025.05
2018-06-13T02:05:48.612Z,93018.92
2018-06-13T02:08:17.436Z,93012.20
2018-06-13T02:10:46.187Z,93011.89
2018-06-13T02:13:14.926Z,93011.20
2018-06-13T02:15:43.772Z,93004.98
2018-06-13T02:18:12.559Z,93006.03
2018-06-13T02:20:41.313Z,93002.22
2018-06-13T02:23:10.143Z,92997.63
2018-06-13T02:25:39.051Z,92995.09
2018-06-13T02:28:07.911Z,92996.59
2018-06-13T02:30:36.683Z,92993.23
2018-06-13T02:33:05.514Z,92998.59
2018-06-13T02:35:34.260Z,92997.77
2018-06-13T02:38:03.035Z,93001.91
2018-06-13T02:40:31.987Z,93002.04
2018-06-13T02:43:00.744Z,93001.36
2018-06-13T02:45:29.534Z,92997.78
2018-06-13T02:47:58.330Z,93000.81
2018-06-13T02:50:27.218Z,92993.73
2018-06-13T02:52:55.985Z,92996.95
2018-06-13T02:55:24.748Z,93006.41
2018-06-13T02:57:53.621Z,92997.27
2018-06-13T03:00:22.383Z,93002.31
2018-06-13T03:02:51.168Z,93006.08
2018-06-13T03:05:19.951Z,93010.05
2018-06-13T03:07:48.741Z,93006.02
2018-06-13T03:10:17.634Z,93009.11
2018-06-13T03:12:46.522Z,93010.23
2018-06-13T03:15:15.289Z,93011.89
2018-06-13T03:17:44.073Z,93010.86
2018-06-13T03:20:12.967Z,93005.24
2018-06-13T03:22:41.741Z,93001.96
2018-06-13T03:25:10.569Z,93003.96
2018-06-13T03:27:39.357Z,93003.78
2018-06-13T03:30:08.191Z,93004.30
2018-06-13T03:32:37.011Z,93005.59
2018-06-13T03:35:05.879Z,92999.25
2018-06-13T03:37:34.669Z,92999.14
2018-06-13T03:40:03.520Z,92995.16
2018-06-13T03:42:32.334Z,92993.00
2018-06-13T03:45:01.116Z,92991.23
2018-06-13T03:47:29.920Z,92984.08
2018-06-13T03:49:58.669Z,92986.37
2018-06-13T03:52:27.577Z,92986.56
2018-06-13T03:54:56.457Z,92979.36
2018-06-13T03:57:25.387Z,92967.98
2018-06-13T03:59:54.156Z,92969.47
2018-06-13T04:02:22.976Z,92965.17
2018-06-13T04:04:51.752Z,92962.77
2018-06-13T04:07:20.532Z,92956.18
2018-06-13T04:09:49.337Z,92913.66
2018-06-13T04:12:18.132Z,92957.13
2018-06-13T04:14:46.991Z,92960.01
2018-06-13T04:17:15.821Z,92955.14
2018-06-13T04:19:44.684Z,92955.17
2018-06-13T04:22:13.446Z,92949.91
2018-06-13T04:24:42.204Z,92949.22
2018-06-13T04:27:10.980Z,92950.11
2018-06-13T04:29:39.798Z,92937.59
2018-06-13T04:32:08.665Z,92938.13
2018-06-13T04:34:37.426Z,92935.70
2018-06-13T04:37:06.223Z,92936.35
2018-06-13T04:39:35.023Z,92939.22
2018-06-13T04:42:04.296Z,92939.98
2018-06-13T04:44:33.077Z,92940.28
2018-06-13T04:47:01.852Z,92933.95
2018-06-13T04:49:30.639Z,92938.59
2018-06-13T04:51:59.502Z,92931.57
2018-06-13T04:54:28.271Z,92938.55
2018-06-13T04:56:57.044Z,92940.77
2018-06-13T04:59:25.811Z,92935.79
2018-06-13T05:01:54.582Z,92939.41
2018-06-13T05:04:23.394Z,92942.00
2018-06-13T05:06:52.177Z,92944.42
2018-06-13T05:09:20.953Z,92943.83
2018-06-13T05:11:49.725Z,92946.23
2018-06-13T05:14:18.544Z,92946.16
2018-06-13T05:16:47.373Z,92945.14
2018-06-13T05:19:16.380Z,92944.95
2018-06-13T05:21:45.167Z,92943.03
2018-06-13T05:24:13.937Z,92941.84
2018-06-13T05:26:42.825Z,92945.15
2018-06-13T05:29:11.683Z,92943.40
2018-06-13T05:31:40.471Z,92934.11
2018-06-13T05:34:09.291Z,92937.99
2018-06-13T05:36:38.119Z,92938.59
2018-06-13T05:39:08.322Z,92931.91
2018-06-13T05:41:37.126Z,92933.91
2018-06-13T05:44:05.926Z,92936.16
2018-06-13T05:46:34.704Z,92934.56
2018-06-13T05:49:03.552Z,92941.65
2018-06-13T05:51:32.307Z,92934.61
2018-06-13T05:54:01.082Z,92935.95
2018-06-13T05:56:29.875Z,92940.59
2018-06-13T05:58:58.668Z,92949.78
2018-06-13T06:01:27.578Z,92936.68
2018-06-13T06:03:56.405Z,92945.88
2018-06-13T06:06:25.242Z,92952.23
2018-06-13T06:08:54.014Z,92954.92
2018-06-13T06:11:22.967Z,92955.14
2018-06-13T06:13:51.796Z,92953.05
2018-06-13T06:16:20.587Z,92952.00
2018-06-13T06:18:49.428Z,92956.70
2018-06-13T06:21:18.214Z,92962.30
2018-06-13T06:23:46.973Z,92958.56
2018-06-13T06:26:15.734Z,92965.77
2018-06-13T06:28:44.513Z,92955.84
2018-06-13T06:31:13.294Z,92958.25
2018-06-13T06:33:42.108Z,92957.90
2018-06-13T06:36:10.896Z,92955.34
2018-06-13T06:38:39.664Z,92960.80
2018-06-13T06:41:08.462Z,92960.17
2018-06-13T06:43:37.282Z,92950.14
2018-06-13T06:46:06.064Z,92953.19
2018-06-13T06:48:34.831Z,92941.30
2018-06-13T06:51:03.588Z,92945.91
2018-06-13T06:53:32.476Z,92938.77
2018-06-13T06:56:01.273Z,92936.94
2018-06-13T06:58:30.085Z,92927.13
2018-06-13T07:00:58.887Z,92943.04
2018-06-13T07:03:27.627Z,92931.34
2018-06-13T07:05:56.403Z,92933.38
2018-06-13T07:08:25.155Z,92935.85
2018-06-13T07:10:53.968Z,92935.41
2018-06-13T07:13:22.736Z,92935.26
2018-06-13T07:15:51.527Z,92877.65
2018-06-13T07:18:20.405Z,92940.61
2018-06-13T07:20:49.172Z,92936.58
2018-06-13T07:23:17.991Z,92942.48
2018-06-13T07:25:46.876Z,92935.23
2018-06-13T07:28:16.343Z,92933.51
2018-06-13T07:30:45.122Z,92927.05
2018-06-13T07:33:13.861Z,92928.36
2018-06-13T07:35:42.657Z,92932.95
2018-06-13T07:38:11.458Z,92935.99
2018-06-13T07:40:40.367Z,92925.66
2018-06-13T07:43:09.164Z,92923.77
2018-06-13T07:45:37.951Z,92922.17
2018-06-13T07:48:06.833Z,92922.09
2018-06-13T07:50:35.636Z,92924.56
2018-06-13T07:53:04.479Z,92913.82
2018-06-13T07:55:33.281Z,92907.05
2018-06-13T07:58:02.157Z,92906.48
2018-06-13T08:00:30.931Z,92898.77
2018-06-13T08:02:59.768Z,92893.65
2018-06-13T08:05:28.570Z,92885.30
2018-06-13T08:07:57.388Z,92885.05
2018-06-13T08:10:26.255Z,92888.09
2018-06-13T08:12:55.061Z,92871.58
2018-06-13T08:15:23.914Z,92874.25
2018-06-13T08:17:52.750Z,92868.17
2018-06-13T08:20:21.571Z,92868.94
2018-06-13T08:22:51.408Z,92865.64
2018-06-13T08:25:20.335Z,92870.41
2018-06-13T08:27:49.892Z,92865.12
2018-06-13T08:30:18.736Z,92859.52
2018-06-13T08:32:47.543Z,92858.63
2018-06-13T08:35:16.372Z,92859.20
2018-06-13T08:37:45.204Z,92852.02
2018-06-13T08:40:14.056Z,92850.13
2018-06-13T08:42:42.853Z,92846.05
2018-06-13T08:45:11.837Z,92852.47
2018-06-13T08:47:40.742Z,92847.51
2018-06-13T08:50:09.627Z,92847.30
2018-06-13T08:52:38.437Z,92848.58
2018-06-13T08:55:07.381Z,92851.16
2018-06-13T08:57:36.163Z,92854.03
2018-06-13T09:00:05.561Z,92841.18
2018-06-13T09:02:34.400Z,92841.22
2018-06-13T09:05:03.299Z,92846.59
2018-06-13T09:07:32.105Z,92856.02
2018-06-13T09:10:00.990Z,92846.59
2018-06-13T09:12:29.899Z,92845.55
2018-06-13T09:14:58.744Z,92849.14
2018-06-13T09:17:27.523Z,92843.50
2018-06-13T09:19:56.313Z,92847.36
2018-06-13T09:22:25.120Z,92849.78
2018-06-13T09:24:53.960Z,92840.85
2018-06-13T09:27:22.768Z,92838.67
2018-06-13T09:29:51.568Z,92839.56
2018-06-13T09:32:20.409Z,92844.02
2018-06-13T09:34:49.194Z,92842.21
2018-06-13T09:37:17.995Z,92838.95
2018-06-13T09:39:46.885Z,92837.48
2018-06-13T09:42:15.700Z,92830.81
2018-06-13T09:44:44.592Z,92823.88
2018-06-13T09:47:15.133Z,92830.69
2018-06-13T09:49:42.285Z,92831.29
2018-06-13T09:52:11.117Z,92826.70
2018-06-13T09:54:40.006Z,92831.31
2018-06-13T09:57:08.837Z,92832.88
2018-06-13T09:59:42.713Z,92825.95
2018-06-13T10:02:18.912Z,92827.86
2018-06-13T10:04:48.442Z,92826.53
2018-06-13T10:07:17.247Z,92815.92
2018-06-13T10:09:46.065Z,92813.34
2018-06-13T10:12:14.881Z,92816.17
2018-06-13T10:14:43.853Z,92811.35
2018-06-13T10:17:12.750Z,92809.89
2018-06-13T10:19:41.556Z,92799.22
2018-06-13T10:22:10.415Z,92799.30
2018-06-13T10:24:39.219Z,92803.05
2018-06-13T10:27:13.107Z,92796.41
2018-06-13T10:29:41.937Z,92793.62
2018-06-13T10:32:10.759Z,92792.45
2018-06-13T10:34:39.567Z,92791.34
2018-06-13T10:37:08.484Z,92790.66
2018-06-13T10:39:37.273Z,92780.30
2018-06-13T10:42:06.480Z,92767.70
2018-06-13T10:44:35.301Z,92761.33
2018-06-13T10:47:04.166Z,92754.88
2018-06-13T10:49:33.068Z,92757.67
2018-06-13T10:52:01.884Z,92755.71
2018-06-13T10:54:30.701Z,92746.14
2018-06-13T10:56:59.550Z,92742.65
2018-06-13T10:59:28.434Z,92730.39
2018-06-13T11:03:26.577Z,92730.25
2018-06-13T11:05:55.356Z,92729.26
2018-06-13T11:08:25.180Z,92738.22
2018-06-13T11:10:53.989Z,92740.78
2018-06-13T11:13:22.828Z,92742.06
2018-06-13T11:15:51.609Z,92741.97
2018-06-13T11:18:20.424Z,92734.30
2018-06-13T11:20:49.338Z,92733.41
2018-06-13T11:23:18.151Z,92730.07
2018-06-13T11:25:46.968Z,92723.84
2018-06-13T11:28:15.752Z,92715.65
2018-06-13T11:30:44.619Z,92711.83
2018-06-13T11:33:13.854Z,92714.71
2018-06-13T11:35:42.646Z,92716.89
2018-06-13T11:38:11.416Z,92734.72
2018-06-13T11:40:40.259Z,92743.27
2018-06-13T11:43:10.530Z,92733.71
2018-06-13T11:45:39.425Z,92734.89
2018-06-13T11:48:08.461Z,92737.87
2018-06-13T11:50:37.391Z,92721.94
2018-06-13T11:53:06.188Z,92717.64
2018-06-13T11:55:35.224Z,92720.16
2018-06-13T11:58:04.034Z,92724.15
2018-06-13T12:00:32.880Z,92735.53
2018-06-13T12:03:01.827Z,92742.66
2018-06-13T12:05:31.921Z,92751.16
2018-06-13T12:08:00.741Z,92756.40
2018-06-13T12:10:29.529Z,92765.47
2018-06-13T12:12:58.406Z,92753.92
2018-06-13T12:15:27.249Z,92740.48
2018-06-13T12:17:56.097Z,92731.85
2018-06-13T12:20:24.972Z,92725.81
2018-06-13T12:22:53.861Z,92728.08
2018-06-13T12:25:22.645Z,92726.03
2018-06-13T12:27:51.592Z,92713.02
2018-06-13T12:30:20.390Z,92712.98
2018-06-13T12:32:49.199Z,92697.23
2018-06-13T12:35:18.074Z,92668.02
2018-06-13T12:37:46.873Z,92641.23
2018-06-13T12:40:15.715Z,92620.77
2018-06-13T12:42:44.517Z,92601.59
2018-06-13T12:45:13.331Z,92601.18
2018-06-13T12:47:42.145Z,92600.48
2018-06-13T12:50:11.040Z,92603.11
2018-06-13T12:52:39.875Z,92596.16
2018-06-13T12:55:08.720Z,92596.72
2018-06-13T12:57:37.528Z,92603.58
2018-06-13T13:00:06.812Z,92601.25
2018-06-13T13:02:35.610Z,92613.45
2018-06-13T13:05:04.461Z,92621.23
2018-06-13T13:07:33.377Z,92633.84
2018-06-13T13:10:02.185Z,92634.56
2018-06-13T13:12:31.040Z,92648.81
2018-06-13T13:14:59.928Z,92660.77
2018-06-13T13:17:28.858Z,92660.80
2018-06-13T13:19:57.666Z,92662.92
2018-06-13T13:22:26.473Z,92674.22
2018-06-13T13:24:55.328Z,92665.68
2018-06-13T13:27:24.168Z,92672.38
2018-06-13T13:29:53.171Z,92684.63
2018-06-13T13:32:21.971Z,92684.76
2018-06-13T13:34:50.888Z,92698.33
2018-06-13T13:37:19.749Z,92697.53
2018-06-13T13:39:48.596Z,92689.92
2018-06-13T13:42:17.440Z,92678.05
2018-06-13T13:44:46.263Z,92676.64
2018-06-13T13:47:15.099Z,92675.37
2018-06-13T13:49:43.908Z,92675.06
2018-06-13T13:52:12.700Z,92679.27
2018-06-13T13:54:41.489Z,92689.72
2018-06-13T13:57:10.409Z,92693.56
2018-06-13T13:59:39.401Z,92693.77
2018-06-13T14:02:08.206Z,92692.52
2018-06-13T14:04:37.032Z,92684.17
2018-06-13T14:07:05.918Z,92681.28
2018-06-13T14:09:34.714Z,92666.55
2018-06-13T14:12:03.710Z,92666.23
2018-06-13T14:14:32.555Z,92662.03
2018-06-13T14:17:01.373Z,92665.05
2018-06-13T14:19:30.239Z,92672.88
2018-06-13T14:21:59.076Z,92674.09
2018-06-13T14:24:27.931Z,92670.03
2018-06-13T14:26:56.729Z,92667.64
2018-06-13T14:29:25.578Z,92660.87
2018-06-13T14:31:54.505Z,92653.84
2018-06-13T14:34:23.327Z,92653.55
2018-06-13T14:36:52.149Z,92655.91
2018-06-13T14:39:21.008Z,92660.96
2018-06-13T14:41:49.900Z,92653.69
2018-06-13T14:44:18.749Z,92646.01
2018-06-13T14:46:47.602Z,92646.01
2018-06-13T14:49:16.463Z,92636.41
2018-06-13T14:51:47.658Z,92634.81
2018-06-13T14:54:16.608Z,92637.05
2018-06-13T14:56:45.485Z,92646.36
2018-06-13T14:59:14.310Z,92658.83
2018-06-13T15:01:43.136Z,92661.42
2018-06-13T15:04:12.181Z,92672.30
2018-06-13T15:06:41.046Z,92668.30
2018-06-13T15:09:10.410Z,92670.86
2018-06-13T15:11:40.046Z,92671.34
2018-06-13T15:14:09.105Z,92669.73
2018-06-13T15:16:38.242Z,92660.42
2018-06-13T15:19:07.182Z,92650.62
2018-06-13T15:21:36.038Z,92651.74
2018-06-13T15:24:04.837Z,92639.55
2018-06-13T15:26:33.838Z,92643.25
2018-06-13T15:29:02.612Z,92646.33
2018-06-13T15:31:31.469Z,92647.15
2018-06-13T15:34:00.364Z,92658.19
2018-06-13T15:36:29.406Z,92650.34
2018-06-13T15:38:58.266Z,92651.47
2018-06-13T15:41:27.114Z,92653.58
2018-06-13T15:43:55.940Z,92655.63
2018-06-13T15:46:24.777Z,92660.91
2018-06-13T15:48:53.674Z,92657.56
2018-06-13T15:51:22.471Z,92666.52
2018-06-13T15:53:51.284Z,92657.42
2018-06-13T15:56:20.150Z,92667.66
2018-06-13T15:58:48.993Z,92669.43
2018-06-13T16:01:17.817Z,92680.04
2018-06-13T16:03:46.676Z,92688.66
2018-06-13T16:06:15.604Z,92690.27
2018-06-13T16:08:44.490Z,92701.02
2018-06-13T16:11:13.442Z,92715.91
2018-06-13T16:13:42.256Z,92732.88
2018-06-13T16:16:11.089Z,92747.27
2018-06-13T16:18:39.937Z,92763.58
2018-06-13T16:21:08.739Z,92763.73
2018-06-13T16:23:37.578Z,92750.84
2018-06-13T16:26:06.460Z,92728.50
2018-06-13T16:28:35.294Z,92717.90
2018-06-13T16:31:04.147Z,92726.14
2018-06-13T16:33:32.991Z,92743.38
2018-06-13T16:36:01.834Z,92754.50
2018-06-13T16:38:30.699Z,92777.02
2018-06-13T16:40:59.536Z,92815.20
2018-06-13T16:43:28.407Z,92828.05
2018-06-13T16:45:57.210Z,92800.77
2018-06-13T16:48:26.097Z,92791.03
2018-06-13T16:51:07.638Z,92781.20
2018-06-13T16:55:52.537Z,92775.02
2018-06-13T16:58:21.434Z,92772.76
2018-06-13T17:00:50.316Z,92763.08
2018-06-13T17:03:19.292Z,92752.67
2018-06-13T17:05:48.146Z,92747.42
2018-06-13T17:08:17.053Z,92740.66
2018-06-13T17:10:46.603Z,92740.50
2018-06-13T17:13:15.431Z,92741.61
2018-06-13T17:15:44.287Z,92739.14
2018-06-13T17:18:13.112Z,92746.69
2018-06-13T17:20:41.922Z,92755.13
2018-06-13T17:23:10.831Z,92692.63
2018-06-13T17:25:39.760Z,92758.99
2018-06-13T17:28:08.597Z,92754.45
2018-06-13T17:30:37.555Z,92744.36
2018-06-13T17:33:06.703Z,92742.48
2018-06-13T17:35:35.600Z,92760.14
2018-06-13T17:38:04.537Z,92768.27
2018-06-13T17:40:33.378Z,92769.99
2018-06-13T17:43:02.237Z,92785.46
2018-06-13T17:45:31.316Z,92789.27
2018-06-13T17:48:00.209Z,92819.73
2018-06-13T17:50:29.028Z,92834.45
2018-06-13T17:52:57.888Z,92839.39
2018-06-13T17:55:26.719Z,92836.04
2018-06-13T17:57:55.561Z,92832.12
2018-06-13T18:00:24.535Z,92833.61
2018-06-13T18:02:53.505Z,92835.95
2018-06-13T18:05:22.346Z,92841.46
2018-06-13T18:07:51.230Z,92847.55
2018-06-13T18:10:20.080Z,92857.83
2018-06-13T18:12:48.904Z,92862.73
2018-06-13T18:15:17.765Z,92860.86
2018-06-13T18:17:46.623Z,92855.61
2018-06-13T18:20:15.430Z,92853.20
2018-06-13T18:22:44.371Z,92855.23
2018-06-13T18:25:13.196Z,92869.59
2018-06-13T18:27:42.077Z,92877.63
2018-06-13T18:30:10.946Z,92876.91
2018-06-13T18:32:39.822Z,92886.02
2018-06-13T18:35:08.630Z,92883.04
2018-06-13T18:37:37.494Z,92880.63
2018-06-13T18:40:06.437Z,92876.95
2018-06-13T18:42:35.268Z,92872.92
2018-06-13T18:45:04.256Z,92874.77
2018-06-13T18:47:33.098Z,92879.89
2018-06-13T18:50:01.934Z,92880.48
2018-06-13T18:52:30.791Z,92871.55
2018-06-13T18:54:59.666Z,92866.00
2018-06-13T18:57:28.537Z,92858.84
2018-06-13T18:59:57.501Z,92853.45
2018-06-13T19:02:26.451Z,92852.89
2018-06-13T19:04:55.300Z,92865.82
2018-06-13T19:07:24.285Z,92874.58
2018-06-13T19:09:53.089Z,92900.03
2018-06-13T19:12:21.968Z,92904.16
2018-06-13T19:14:51.934Z,92886.92
2018-06-13T19:17:20.796Z,92856.42
2018-06-13T19:19:49.977Z,92834.33
2018-06-13T19:22:18.894Z,92856.16
2018-06-13T19:24:47.680Z,92831.24
2018-06-13T19:27:17.243Z,92837.48
2018-06-13T19:29:46.205Z,92866.08
2018-06-13T19:32:15.037Z,92870.20
2018-06-13T19:34:43.860Z,92878.19
2018-06-13T19:37:12.759Z,92894.81
2018-06-13T19:39:41.639Z,92902.77
2018-06-13T19:42:10.443Z,92919.81
2018-06-13T19:44:39.349Z,92930.65
2018-06-13T19:47:13.313Z,92922.35
2018-06-13T19:49:42.208Z,92907.59
2018-06-13T19:52:12.091Z,92915.66
2018-06-13T19:54:46.011Z,92938.86
2018-06-13T19:57:14.905Z,92950.02
2018-06-13T19:59:43.718Z,92950.95
2018-06-13T20:03:47.035Z,92949.03
2018-06-13T20:06:15.940Z,92962.06
2018-06-13T20:08:44.738Z,92962.73
2018-06-13T20:11:13.713Z,92977.51
2018-06-13T20:13:47.648Z,92972.41
2018-06-13T20:16:31.399Z,92973.45
2018-06-13T20:19:05.221Z,92974.27
2018-06-13T20:21:34.065Z,92972.20
2018-06-13T20:24:02.890Z,92970.80
2018-06-13T20:26:36.786Z,92958.92
2018-06-13T20:29:11.274Z,92967.23
2018-06-13T20:31:42.431Z,92965.05
2018-06-13T20:34:11.349Z,92970.56
2018-06-13T20:36:40.228Z,92964.80
2018-06-13T20:39:10.279Z,92961.11
2018-06-13T20:41:39.673Z,92961.93
2018-06-13T20:44:08.808Z,92951.41
2018-06-13T20:46:37.686Z,92938.62
2018-06-13T20:49:06.613Z,92931.02
2018-06-13T20:51:35.467Z,92921.64
2018-06-13T20:54:04.405Z,92920.95
2018-06-13T20:56:33.405Z,92912.66
2018-06-13T20:59:02.271Z,92916.83
2018-06-13T21:01:31.094Z,92911.16
2018-06-13T21:03:59.902Z,92908.72
2018-06-13T21:06:28.699Z,92901.72
2018-06-13T21:08:57.526Z,92903.45
2018-06-13T21:11:26.357Z,92910.25
2018-06-13T21:13:55.197Z,92914.97
2018-06-13T21:16:24.019Z,92912.20
2018-06-13T21:18:52.946Z,92908.19
2018-06-13T21:21:21.745Z,92910.23
2018-06-13T21:23:50.575Z,92909.20
2018-06-13T21:26:19.367Z,92901.94
2018-06-13T21:28:48.190Z,92907.59
2018-06-13T21:31:17.096Z,92901.34
2018-06-13T21:33:45.959Z,92907.94
2018-06-13T21:36:14.746Z,92908.84
2018-06-13T21:38:43.536Z,92903.68
2018-06-13T21:41:13.355Z,92899.06
2018-06-13T21:43:42.181Z,92902.05
2018-06-13T21:46:10.966Z,92908.27
2018-06-13T21:48:39.748Z,92911.06
2018-06-13T21:51:08.567Z,92903.91
2018-06-13T21:53:37.395Z,92903.80
2018-06-13T21:56:06.250Z,92895.61
2018-06-13T21:58:35.064Z,92887.88
2018-06-13T22:01:03.882Z,92879.82
2018-06-13T22:03:32.763Z,92871.99
2018-06-13T22:06:01.722Z,92863.11
2018-06-13T22:08:30.663Z,92844.67
2018-06-13T22:10:59.650Z,92841.55
2018-06-13T22:13:28.625Z,92837.30
2018-06-13T22:15:57.464Z,92830.71
2018-06-13T22:18:26.325Z,92828.53
2018-06-13T22:20:55.130Z,92819.66
2018-06-13T22:23:23.908Z,92809.74
2018-06-13T22:25:52.814Z,92812.73
2018-06-13T22:28:21.630Z,92810.42
2018-06-13T22:30:50.417Z,92812.05
2018-06-13T22:33:19.180Z,92804.78
2018-06-13T22:35:48.040Z,92802.83
2018-06-13T22:38:16.939Z,92811.70
2018-06-13T22:40:45.744Z,92807.80
2018-06-13T22:43:14.576Z,92812.89
2018-06-13T22:45:43.367Z,92811.62
2018-06-13T22:48:12.222Z,92811.03
2018-06-13T22:50:41.069Z,92812.55
2018-06-13T22:53:09.924Z,92825.11
2018-06-13T22:55:38.730Z,92832.48
2018-06-13T22:58:07.535Z,92834.78
2018-06-13T23:01:11.835Z,92835.48
2018-06-13T23:03:40.673Z,92834.30
2018-06-13T23:06:10.567Z,92837.18
2018-06-13T23:08:39.834Z,92837.88
2018-06-13T23:11:08.648Z,92833.95
2018-06-13T23:13:37.477Z,92832.94
2018-06-13T23:16:06.283Z,92830.86
2018-06-13T23:18:35.085Z,92833.72
2018-06-13T23:21:03.955Z,92841.20
2018-06-13T23:23:32.848Z,92842.59
2018-06-13T23:26:01.651Z,92850.44
2018-06-13T23:28:30.435Z,92854.81
2018-06-13T23:30:59.325Z,92856.53
2018-06-13T23:33:28.156Z,92863.20
2018-06-13T23:35:56.967Z,92863.80
2018-06-13T23:38:25.733Z,92854.81
2018-06-13T23:40:54.569Z,92871.52
2018-06-13T23:43:23.544Z,92863.55
2018-06-13T23:45:52.390Z,92874.97
2018-06-13T23:48:21.147Z,92869.81
2018-06-13T23:50:49.923Z,92865.66
2018-06-13T23:53:18.796Z,92857.58
2018-06-13T23:55:47.687Z,92849.88
2018-06-13T23:58:16.569Z,92846.98
